sensor_id;sensor_type;location;lat;lon;timestamp;pressure;altitude;pressure_sealevel;temperature;humidity
22096;BME280;24083;55.670;37.568;2023-05-12T00:01:59;99565.00;;;14.39;100.00
22096;BME280;24083;55.670;37.568;2023-05-12T00:04:29;99564.72;;;14.14;100.00
22096;BME280;24083;55.670;37.568;2023-05-12T00:06:56;99567.06;;;14.02;100.00
22096;BME280;24083;55.670;37.568;2023-05-12T00:09:30;99566.41;;;14.15;100.00
22096;BME280;24083;55.670;37.568;2023-05-12T00:11:57;99560.97;;;13.86;100.00
22096;BME280;24083;55.670;37.568;2023-05-12T00:16:55;99556.34;;;13.91;100.00
22096;BME280;24083;55.670;37.568;2023-05-12T00:19:20;99563.84;;;14.13;100.00
22096;BME280;24083;55.670;37.568;2023-05-12T00:21:48;99561.16;;;14.15;100.00
22096;BME280;24083;55.670;37.568;2023-05-12T00:24:15;99558.47;;;13.84;100.00
22096;BME280;24083;55.670;37.568;2023-05-12T00:26:41;99553.38;;;13.65;100.00
22096;BME280;24083;55.670;37.568;2023-05-12T00:29:08;99546.09;;;14.02;100.00
22096;BME280;24083;55.670;37.568;2023-05-12T00:31:33;99561.16;;;13.83;100.00
22096;BME280;24083;55.670;37.568;2023-05-12T00:34:00;99551.84;;;13.93;100.00
22096;BME280;24083;55.670;37.568;2023-05-12T00:36:26;99551.69;;;13.80;100.00
22096;BME280;24083;55.670;37.568;2023-05-12T00:38:53;99550.00;;;13.63;100.00
22096;BME280;24083;55.670;37.568;2023-05-12T00:41:26;99550.84;;;14.12;100.00
22096;BME280;24083;55.670;37.568;2023-05-12T00:43:56;99546.94;;;13.71;100.00
22096;BME280;24083;55.670;37.568;2023-05-12T00:46:22;99540.19;;;13.67;100.00
22096;BME280;24083;55.670;37.568;2023-05-12T00:48:48;99547.97;;;13.68;100.00
22096;BME280;24083;55.670;37.568;2023-05-12T00:51:17;99547.28;;;13.80;100.00
22096;BME280;24083;55.670;37.568;2023-05-12T00:53:45;99545.09;;;13.89;100.00
22096;BME280;24083;55.670;37.568;2023-05-12T00:56:12;99542.72;;;14.00;100.00
22096;BME280;24083;55.670;37.568;2023-05-12T00:58:38;99547.66;;;13.74;100.00
22096;BME280;24083;55.670;37.568;2023-05-12T01:01:03;99533.59;;;14.07;100.00
22096;BME280;24083;55.670;37.568;2023-05-12T01:03:30;99545.41;;;13.50;100.00
22096;BME280;24083;55.670;37.568;2023-05-12T01:08:49;99537.00;;;13.77;100.00
22096;BME280;24083;55.670;37.568;2023-05-12T01:17:07;99543.72;;;13.82;100.00
22096;BME280;24083;55.670;37.568;2023-05-12T01:19:46;99537.00;;;13.77;100.00
22096;BME280;24083;55.670;37.568;2023-05-12T01:25:27;99548.97;;;14.14;100.00
22096;BME280;24083;55.670;37.568;2023-05-12T01:38:14;99551.66;;;13.48;100.00
22096;BME280;24083;55.670;37.568;2023-05-12T01:40:41;99545.00;;;14.06;100.00
22096;BME280;24083;55.670;37.568;2023-05-12T01:46:28;99544.25;;;14.04;100.00
22096;BME280;24083;55.670;37.568;2023-05-12T01:48:58;99544.41;;;14.01;100.00
22096;BME280;24083;55.670;37.568;2023-05-12T01:51:25;99549.66;;;13.69;100.00
22096;BME280;24083;55.670;37.568;2023-05-12T01:53:53;99549.16;;;14.10;100.00
22096;BME280;24083;55.670;37.568;2023-05-12T01:56:20;99545.78;;;13.92;100.00
22096;BME280;24083;55.670;37.568;2023-05-12T01:58:50;99542.41;;;13.74;100.00
22096;BME280;24083;55.670;37.568;2023-05-12T02:01:16;99546.00;;;13.56;100.00
22096;BME280;24083;55.670;37.568;2023-05-12T02:03:41;99543.03;;;14.73;100.00
22096;BME280;24083;55.670;37.568;2023-05-12T02:06:13;99543.13;;;14.24;100.00
22096;BME280;24083;55.670;37.568;2023-05-12T02:08:46;99543.81;;;14.12;100.00
22096;BME280;24083;55.670;37.568;2023-05-12T02:11:13;99542.25;;;13.77;100.00
22096;BME280;24083;55.670;37.568;2023-05-12T02:13:41;99547.13;;;14.00;100.00
22096;BME280;24083;55.670;37.568;2023-05-12T02:16:09;99548.63;;;13.88;100.00
22096;BME280;24083;55.670;37.568;2023-05-12T02:18:36;99550.50;;;14.18;100.00
22096;BME280;24083;55.670;37.568;2023-05-12T02:21:25;99547.13;;;14.00;100.00
22096;BME280;24083;55.670;37.568;2023-05-12T02:23:53;99541.72;;;13.87;100.00
22096;BME280;24083;55.670;37.568;2023-05-12T02:26:20;99545.78;;;13.76;100.00
22096;BME280;24083;55.670;37.568;2023-05-12T02:28:49;99548.56;;;14.52;100.00
22096;BME280;24083;55.670;37.568;2023-05-12T02:31:15;99536.50;;;14.64;100.00
22096;BME280;24083;55.670;37.568;2023-05-12T02:33:44;99543.28;;;14.21;99.13
22096;BME280;24083;55.670;37.568;2023-05-12T02:36:11;99536.38;;;14.04;99.77
22096;BME280;24083;55.670;37.568;2023-05-12T02:38:44;99530.25;;;14.66;99.57
22096;BME280;24083;55.670;37.568;2023-05-12T02:41:14;99543.78;;;14.59;98.78
22096;BME280;24083;55.670;37.568;2023-05-12T02:43:41;99544.75;;;14.27;98.86
22096;BME280;24083;55.670;37.568;2023-05-12T02:46:07;99540.69;;;14.52;99.66
22096;BME280;24083;55.670;37.568;2023-05-12T02:48:36;99545.31;;;14.63;100.00
22096;BME280;24083;55.670;37.568;2023-05-12T02:51:03;99544.31;;;14.65;99.17
22096;BME280;24083;55.670;37.568;2023-05-12T02:53:31;99542.88;;;14.90;98.78
22096;BME280;24083;55.670;37.568;2023-05-12T02:55:56;99538.94;;;14.36;99.65
22096;BME280;24083;55.670;37.568;2023-05-12T02:58:22;99551.84;;;14.25;100.00
22096;BME280;24083;55.670;37.568;2023-05-12T03:00:49;99554.63;;;14.68;100.00
22096;BME280;24083;55.670;37.568;2023-05-12T03:03:17;99545.56;;;15.34;98.09
22096;BME280;24083;55.670;37.568;2023-05-12T03:05:44;99543.03;;;14.87;99.25
22096;BME280;24083;55.670;37.568;2023-05-12T03:08:10;99551.09;;;14.84;98.41
22096;BME280;24083;55.670;37.568;2023-05-12T03:10:38;99537.75;;;15.03;97.95
22096;BME280;24083;55.670;37.568;2023-05-12T03:15:36;99539.13;;;15.52;96.71
22096;BME280;24083;55.670;37.568;2023-05-12T03:18:04;99538.25;;;15.81;95.40
22096;BME280;24083;55.670;37.568;2023-05-12T03:20:30;99543.63;;;15.65;97.17
22096;BME280;24083;55.670;37.568;2023-05-12T03:22:58;99539.44;;;15.04;95.12
22096;BME280;24083;55.670;37.568;2023-05-12T03:25:25;99544.38;;;15.81;96.12
22096;BME280;24083;55.670;37.568;2023-05-12T03:27:50;99538.91;;;15.84;95.81
22096;BME280;24083;55.670;37.568;2023-05-12T03:30:16;99546.81;;;15.70;96.12
22096;BME280;24083;55.670;37.568;2023-05-12T03:32:43;99540.47;;;15.16;96.43
22096;BME280;24083;55.670;37.568;2023-05-12T03:35:10;99542.53;;;16.38;95.58
22096;BME280;24083;55.670;37.568;2023-05-12T03:37:37;99544.13;;;15.57;95.27
22096;BME280;24083;55.670;37.568;2023-05-12T03:40:04;99542.06;;;16.04;93.84
22096;BME280;24083;55.670;37.568;2023-05-12T03:42:32;99538.66;;;16.16;95.08
22096;BME280;24083;55.670;37.568;2023-05-12T03:44:59;99535.47;;;17.18;93.49
22096;BME280;24083;55.670;37.568;2023-05-12T03:47:26;99532.59;;;16.69;94.06
22096;BME280;24083;55.670;37.568;2023-05-12T03:50:28;99540.75;;;16.52;93.35
22096;BME280;24083;55.670;37.568;2023-05-12T03:56:13;99539.34;;;16.33;92.92
22096;BME280;24083;55.670;37.568;2023-05-12T03:58:48;99536.38;;;16.25;92.72
22096;BME280;24083;55.670;37.568;2023-05-12T04:01:19;99548.34;;;15.89;94.23
22096;BME280;24083;55.670;37.568;2023-05-12T04:04:02;99543.28;;;16.13;94.29
22096;BME280;24083;55.670;37.568;2023-05-12T04:09:31;99542.84;;;17.13;93.14
22096;BME280;24083;55.670;37.568;2023-05-12T04:12:03;99536.53;;;17.02;92.84
22096;BME280;24083;55.670;37.568;2023-05-12T04:14:31;99537.00;;;16.28;92.68
22096;BME280;24083;55.670;37.568;2023-05-12T04:16:58;99537.22;;;15.98;93.34
22096;BME280;24083;55.670;37.568;2023-05-12T04:22:22;99541.03;;;16.34;94.18
22096;BME280;24083;55.670;37.568;2023-05-12T04:24:50;99534.16;;;16.72;92.90
22096;BME280;24083;55.670;37.568;2023-05-12T04:27:15;99524.94;;;17.18;91.83
22096;BME280;24083;55.670;37.568;2023-05-12T04:29:42;99527.25;;;17.35;92.23
22096;BME280;24083;55.670;37.568;2023-05-12T04:32:09;99532.09;;;18.16;91.22
22096;BME280;24083;55.670;37.568;2023-05-12T04:37:05;99527.47;;;18.07;90.55
22096;BME280;24083;55.670;37.568;2023-05-12T04:39:31;99524.34;;;18.02;90.51
22096;BME280;24083;55.670;37.568;2023-05-12T04:41:59;99529.75;;;17.87;90.13
22096;BME280;24083;55.670;37.568;2023-05-12T04:44:29;99527.69;;;19.00;88.61
22096;BME280;24083;55.670;37.568;2023-05-12T04:46:56;99521.84;;;19.07;88.33
22096;BME280;24083;55.670;37.568;2023-05-12T04:49:23;99529.38;;;18.53;89.59
22096;BME280;24083;55.670;37.568;2023-05-12T04:51:51;99528.06;;;17.99;88.59
22096;BME280;24083;55.670;37.568;2023-05-12T04:56:48;99525.75;;;18.19;88.06
22096;BME280;24083;55.670;37.568;2023-05-12T04:59:13;99520.88;;;18.26;87.73
22096;BME280;24083;55.670;37.568;2023-05-12T05:01:45;99525.03;;;17.79;88.92
22096;BME280;24083;55.670;37.568;2023-05-12T05:04:12;99524.94;;;18.54;88.49
22096;BME280;24083;55.670;37.568;2023-05-12T05:06:39;99533.94;;;17.65;88.34
22096;BME280;24083;55.670;37.568;2023-05-12T05:09:09;99537.03;;;18.57;88.48
22096;BME280;24083;55.670;37.568;2023-05-12T05:11:35;99534.56;;;17.56;89.30
22096;BME280;24083;55.670;37.568;2023-05-12T05:14:15;99530.94;;;17.83;88.48
22096;BME280;24083;55.670;37.568;2023-05-12T05:16:43;99529.59;;;17.64;90.97
22096;BME280;24083;55.670;37.568;2023-05-12T05:19:09;99530.16;;;17.57;91.67
22096;BME280;24083;55.670;37.568;2023-05-12T05:21:36;99529.69;;;18.13;90.43
22096;BME280;24083;55.670;37.568;2023-05-12T05:24:04;99540.00;;;18.41;89.87
22096;BME280;24083;55.670;37.568;2023-05-12T05:26:31;99525.69;;;19.03;87.84
22096;BME280;24083;55.670;37.568;2023-05-12T05:29:01;99527.53;;;18.43;88.66
22096;BME280;24083;55.670;37.568;2023-05-12T05:34:49;99529.84;;;18.47;87.00
22096;BME280;24083;55.670;37.568;2023-05-12T05:37:18;99530.47;;;19.09;86.45
22096;BME280;24083;55.670;37.568;2023-05-12T05:39:45;99532.75;;;17.70;87.33
22096;BME280;24083;55.670;37.568;2023-05-12T05:42:19;99530.50;;;17.89;87.86
22096;BME280;24083;55.670;37.568;2023-05-12T05:44:46;99525.41;;;18.23;88.22
22096;BME280;24083;55.670;37.568;2023-05-12T05:47:15;99528.97;;;18.47;86.95
22096;BME280;24083;55.670;37.568;2023-05-12T05:49:41;99529.16;;;18.08;88.96
22096;BME280;24083;55.670;37.568;2023-05-12T05:52:08;99522.22;;;18.78;87.23
22096;BME280;24083;55.670;37.568;2023-05-12T05:54:36;99518.94;;;19.22;86.74
22096;BME280;24083;55.670;37.568;2023-05-12T05:57:03;99521.09;;;19.17;86.66
22096;BME280;24083;55.670;37.568;2023-05-12T05:59:31;99518.47;;;19.51;86.79
22096;BME280;24083;55.670;37.568;2023-05-12T06:04:28;99518.88;;;20.55;83.36
22096;BME280;24083;55.670;37.568;2023-05-12T06:06:56;99518.22;;;19.31;82.69
22096;BME280;24083;55.670;37.568;2023-05-12T06:09:23;99513.66;;;19.45;82.28
22096;BME280;24083;55.670;37.568;2023-05-12T06:11:50;99518.94;;;19.45;81.28
22096;BME280;24083;55.670;37.568;2023-05-12T06:14:19;99516.25;;;19.67;80.96
22096;BME280;24083;55.670;37.568;2023-05-12T06:16:46;99513.59;;;20.01;79.72
22096;BME280;24083;55.670;37.568;2023-05-12T06:19:12;99517.81;;;20.25;79.89
22096;BME280;24083;55.670;37.568;2023-05-12T06:21:40;99518.53;;;20.70;78.16
22096;BME280;24083;55.670;37.568;2023-05-12T06:24:13;99500.34;;;20.76;77.36
22096;BME280;24083;55.670;37.568;2023-05-12T06:27:15;99507.03;;;21.33;77.20
22096;BME280;24083;55.670;37.568;2023-05-12T06:29:49;99511.00;;;21.48;76.33
22096;BME280;24083;55.670;37.568;2023-05-12T06:32:16;99506.94;;;20.61;74.06
22096;BME280;24083;55.670;37.568;2023-05-12T06:34:42;99504.69;;;20.56;75.40
22096;BME280;24083;55.670;37.568;2023-05-12T06:37:09;99507.94;;;21.12;75.22
22096;BME280;24083;55.670;37.568;2023-05-12T06:45:43;99504.56;;;21.72;72.82
22096;BME280;24083;55.670;37.568;2023-05-12T06:50:37;99504.72;;;20.45;71.84
22096;BME280;24083;55.670;37.568;2023-05-12T06:55:36;99492.69;;;21.96;70.82
22096;BME280;24083;55.670;37.568;2023-05-12T06:58:08;99501.91;;;21.72;69.89
22096;BME280;24083;55.670;37.568;2023-05-12T07:00:35;99499.88;;;21.55;68.35
22096;BME280;24083;55.670;37.568;2023-05-12T07:05:55;99500.25;;;20.67;67.24
22096;BME280;24083;55.670;37.568;2023-05-12T07:08:21;99501.59;;;20.19;63.82
22096;BME280;24083;55.670;37.568;2023-05-12T07:11:07;99501.41;;;20.31;64.79
22096;BME280;24083;55.670;37.568;2023-05-12T07:13:35;99494.19;;;20.76;63.65
22096;BME280;24083;55.670;37.568;2023-05-12T07:16:00;99495.34;;;21.35;64.18
22096;BME280;24083;55.670;37.568;2023-05-12T07:18:27;99492.13;;;21.83;63.57
22096;BME280;24083;55.670;37.568;2023-05-12T07:20:53;99496.38;;;20.71;63.82
22096;BME280;24083;55.670;37.568;2023-05-12T07:23:20;99492.75;;;20.72;62.90
22096;BME280;24083;55.670;37.568;2023-05-12T07:25:49;99481.81;;;21.08;63.70
22096;BME280;24083;55.670;37.568;2023-05-12T07:28:18;99493.22;;;21.70;63.69
22096;BME280;24083;55.670;37.568;2023-05-12T07:30:44;99493.56;;;21.46;63.79
22096;BME280;24083;55.670;37.568;2023-05-12T07:33:19;99488.06;;;21.78;64.14
22096;BME280;24083;55.670;37.568;2023-05-12T07:35:45;99487.09;;;21.79;63.84
22096;BME280;24083;55.670;37.568;2023-05-12T07:38:13;99493.25;;;21.80;63.44
22096;BME280;24083;55.670;37.568;2023-05-12T07:40:55;99485.16;;;22.21;63.38
22096;BME280;24083;55.670;37.568;2023-05-12T08:05:25;99479.28;;;21.88;57.42
22096;BME280;24083;55.670;37.568;2023-05-12T08:10:25;99471.06;;;22.97;59.19
22096;BME280;24083;55.670;37.568;2023-05-12T08:15:51;99470.91;;;22.22;55.02
22096;BME280;24083;55.670;37.568;2023-05-12T08:18:44;99466.69;;;22.59;57.28
22096;BME280;24083;55.670;37.568;2023-05-12T08:21:12;99471.47;;;21.96;55.97
22096;BME280;24083;55.670;37.568;2023-05-12T08:23:42;99470.63;;;22.35;56.82
22096;BME280;24083;55.670;37.568;2023-05-12T08:26:14;99472.59;;;22.23;55.46
22096;BME280;24083;55.670;37.568;2023-05-12T08:28:44;99467.19;;;22.82;55.31
22096;BME280;24083;55.670;37.568;2023-05-12T08:31:20;99448.47;;;22.74;53.92
22096;BME280;24083;55.670;37.568;2023-05-12T08:33:48;99452.50;;;23.16;53.85
22096;BME280;24083;55.670;37.568;2023-05-12T08:37:10;99450.38;;;22.91;50.88
22096;BME280;24083;55.670;37.568;2023-05-12T08:39:36;99457.59;;;22.61;50.79
22096;BME280;24083;55.670;37.568;2023-05-12T08:47:49;99445.44;;;22.29;49.08
22096;BME280;24083;55.670;37.568;2023-05-12T08:50:17;99454.53;;;21.77;49.66
22096;BME280;24083;55.670;37.568;2023-05-12T08:52:48;99436.22;;;22.43;49.60
22096;BME280;24083;55.670;37.568;2023-05-12T08:57:44;99455.25;;;21.99;48.85
22096;BME280;24083;55.670;37.568;2023-05-12T09:00:24;99443.66;;;21.71;49.20
22096;BME280;24083;55.670;37.568;2023-05-12T09:02:52;99438.94;;;22.81;49.29
22096;BME280;24083;55.670;37.568;2023-05-12T09:05:20;99435.13;;;23.21;49.06
22096;BME280;24083;55.670;37.568;2023-05-12T09:07:50;99429.91;;;23.02;49.18
22096;BME280;24083;55.670;37.568;2023-05-12T09:10:19;99427.22;;;22.74;48.77
22096;BME280;24083;55.670;37.568;2023-05-12T09:12:47;99421.75;;;24.32;48.63
22096;BME280;24083;55.670;37.568;2023-05-12T09:15:17;99426.72;;;23.26;48.79
22096;BME280;24083;55.670;37.568;2023-05-12T09:17:45;99407.03;;;22.81;48.72
22096;BME280;24083;55.670;37.568;2023-05-12T09:20:12;99396.97;;;22.85;48.20
22096;BME280;24083;55.670;37.568;2023-05-12T09:22:39;99423.78;;;22.91;48.37
22096;BME280;24083;55.670;37.568;2023-05-12T09:28:48;99425.97;;;23.34;48.79
22096;BME280;24083;55.670;37.568;2023-05-12T09:31:19;99415.16;;;23.81;47.76
22096;BME280;24083;55.670;37.568;2023-05-12T09:33:49;99417.84;;;25.56;47.20
22096;BME280;24083;55.670;37.568;2023-05-12T09:36:18;99409.41;;;25.26;46.86
22096;BME280;24083;55.670;37.568;2023-05-12T09:38:47;99408.06;;;25.22;46.34
22096;BME280;24083;55.670;37.568;2023-05-12T09:41:23;99404.63;;;23.98;46.75
22096;BME280;24083;55.670;37.568;2023-05-12T09:43:51;99401.94;;;22.97;47.13
22096;BME280;24083;55.670;37.568;2023-05-12T09:46:17;99406.81;;;23.76;47.39
22096;BME280;24083;55.670;37.568;2023-05-12T09:48:57;99402.25;;;24.05;46.93
22096;BME280;24083;55.670;37.568;2023-05-12T09:51:25;99404.41;;;25.23;46.60
22096;BME280;24083;55.670;37.568;2023-05-12T09:53:50;99407.88;;;25.15;46.87
22096;BME280;24083;55.670;37.568;2023-05-12T09:56:18;99405.72;;;24.05;47.35
22096;BME280;24083;55.670;37.568;2023-05-12T09:58:45;99413.50;;;23.06;47.47
22096;BME280;24083;55.670;37.568;2023-05-12T10:01:20;99406.97;;;24.90;47.07
22096;BME280;24083;55.670;37.568;2023-05-12T10:03:57;99400.53;;;23.49;48.46
22096;BME280;24083;55.670;37.568;2023-05-12T10:06:30;99411.13;;;23.95;47.66
22096;BME280;24083;55.670;37.568;2023-05-12T10:13:59;99400.53;;;23.85;46.99
22096;BME280;24083;55.670;37.568;2023-05-12T10:16:31;99399.16;;;24.70;47.73
22096;BME280;24083;55.670;37.568;2023-05-12T10:18:57;99399.50;;;23.78;46.49
22096;BME280;24083;55.670;37.568;2023-05-12T10:24:14;99390.06;;;25.24;46.46
22096;BME280;24083;55.670;37.568;2023-05-12T10:30:08;99392.06;;;25.22;46.13
22096;BME280;24083;55.670;37.568;2023-05-12T10:38:34;99393.47;;;24.12;46.40
22096;BME280;24083;55.670;37.568;2023-05-12T10:43:38;99386.91;;;24.51;46.22
22096;BME280;24083;55.670;37.568;2023-05-12T10:49:01;99389.94;;;24.83;46.05
22096;BME280;24083;55.670;37.568;2023-05-12T10:51:34;99393.97;;;24.16;46.72
22096;BME280;24083;55.670;37.568;2023-05-12T10:54:17;99388.38;;;25.23;46.61
22096;BME280;24083;55.670;37.568;2023-05-12T10:56:44;99392.81;;;25.57;46.19
22096;BME280;24083;55.670;37.568;2023-05-12T11:04:40;99387.59;;;23.91;47.01
22096;BME280;24083;55.670;37.568;2023-05-12T11:07:07;99390.13;;;24.10;47.20
22096;BME280;24083;55.670;37.568;2023-05-12T11:09:51;99389.47;;;23.72;46.62
22096;BME280;24083;55.670;37.568;2023-05-12T11:12:18;99392.03;;;25.14;46.57
22096;BME280;24083;55.670;37.568;2023-05-12T11:15:17;99393.63;;;24.90;45.88
22096;BME280;24083;55.670;37.568;2023-05-12T11:17:43;99397.19;;;24.20;46.42
22096;BME280;24083;55.670;37.568;2023-05-12T11:22:53;99392.66;;;25.08;45.79
22096;BME280;24083;55.670;37.568;2023-05-12T11:25:19;99396.66;;;25.55;45.90
22096;BME280;24083;55.670;37.568;2023-05-12T11:27:47;99387.09;;;26.60;45.50
22096;BME280;24083;55.670;37.568;2023-05-12T11:30:15;99384.75;;;27.36;45.23
22096;BME280;24083;55.670;37.568;2023-05-12T11:35:34;99391.81;;;25.58;44.48
22096;BME280;24083;55.670;37.568;2023-05-12T11:38:13;99386.03;;;25.12;44.91
22096;BME280;24083;55.670;37.568;2023-05-12T11:40:40;99376.47;;;25.60;45.69
22096;BME280;24083;55.670;37.568;2023-05-12T11:43:09;99378.63;;;24.97;44.47
22096;BME280;24083;55.670;37.568;2023-05-12T11:45:35;99369.47;;;24.65;45.46
22096;BME280;24083;55.670;37.568;2023-05-12T11:48:08;99373.25;;;24.81;45.85
22096;BME280;24083;55.670;37.568;2023-05-12T11:50:36;99373.28;;;24.97;44.96
22096;BME280;24083;55.670;37.568;2023-05-12T11:53:10;99368.66;;;24.38;44.09
22096;BME280;24083;55.670;37.568;2023-05-12T11:55:53;99362.53;;;23.75;44.92
22096;BME280;24083;55.670;37.568;2023-05-12T11:58:25;99358.16;;;24.63;44.20
22096;BME280;24083;55.670;37.568;2023-05-12T12:03:51;99357.34;;;26.55;43.53
22096;BME280;24083;55.670;37.568;2023-05-12T12:13:12;99360.59;;;24.83;43.84
22096;BME280;24083;55.670;37.568;2023-05-12T12:15:44;99362.13;;;25.53;43.65
22096;BME280;24083;55.670;37.568;2023-05-12T12:20:56;99341.56;;;26.76;42.62
22096;BME280;24083;55.670;37.568;2023-05-12T12:23:28;99337.75;;;26.14;42.51
22096;BME280;24083;55.670;37.568;2023-05-12T12:29:00;99344.63;;;25.59;42.29
22096;BME280;24083;55.670;37.568;2023-05-12T12:31:26;99330.41;;;26.16;42.39
22096;BME280;24083;55.670;37.568;2023-05-12T12:37:28;99331.69;;;26.45;42.21
22096;BME280;24083;55.670;37.568;2023-05-12T12:42:48;99330.03;;;27.16;42.87
22096;BME280;24083;55.670;37.568;2023-05-12T12:45:13;99340.84;;;26.99;42.23
22096;BME280;24083;55.670;37.568;2023-05-12T12:47:46;99328.84;;;26.95;42.89
22096;BME280;24083;55.670;37.568;2023-05-12T12:50:12;99330.34;;;27.44;42.58
22096;BME280;24083;55.670;37.568;2023-05-12T12:52:38;99331.69;;;26.77;42.60
22096;BME280;24083;55.670;37.568;2023-05-12T12:55:07;99333.25;;;27.34;42.01
22096;BME280;24083;55.670;37.568;2023-05-12T12:57:37;99323.97;;;27.68;42.21
22096;BME280;24083;55.670;37.568;2023-05-12T13:00:04;99326.97;;;28.27;41.92
22096;BME280;24083;55.670;37.568;2023-05-12T13:02:33;99322.06;;;27.31;41.31
22096;BME280;24083;55.670;37.568;2023-05-12T13:04:59;99321.09;;;27.93;41.83
22096;BME280;24083;55.670;37.568;2023-05-12T13:07:30;99314.41;;;28.12;41.66
22096;BME280;24083;55.670;37.568;2023-05-12T13:09:56;99323.22;;;27.98;41.06
22096;BME280;24083;55.670;37.568;2023-05-12T13:12:22;99328.47;;;26.98;41.69
22096;BME280;24083;55.670;37.568;2023-05-12T13:15:00;99325.88;;;26.73;42.39
22096;BME280;24083;55.670;37.568;2023-05-12T13:17:31;99311.31;;;27.16;42.22
22096;BME280;24083;55.670;37.568;2023-05-12T13:20:06;99315.50;;;28.48;41.97
22096;BME280;24083;55.670;37.568;2023-05-12T13:22:34;99308.34;;;28.85;42.10
22096;BME280;24083;55.670;37.568;2023-05-12T13:25:00;99313.84;;;27.79;41.86
22096;BME280;24083;55.670;37.568;2023-05-12T13:27:27;99317.75;;;25.77;42.59
22096;BME280;24083;55.670;37.568;2023-05-12T13:29:56;99315.03;;;26.27;42.18
22096;BME280;24083;55.670;37.568;2023-05-12T13:32:24;99316.97;;;25.00;43.27
22096;BME280;24083;55.670;37.568;2023-05-12T13:37:21;99305.72;;;27.02;42.55
22096;BME280;24083;55.670;37.568;2023-05-12T13:39:46;99304.47;;;28.73;41.41
22096;BME280;24083;55.670;37.568;2023-05-12T13:42:12;99300.91;;;27.67;41.51
22096;BME280;24083;55.670;37.568;2023-05-12T13:44:40;99295.59;;;28.87;40.82
22096;BME280;24083;55.670;37.568;2023-05-12T13:50:04;99296.03;;;29.50;39.99
22096;BME280;24083;55.670;37.568;2023-05-12T13:52:30;99298.00;;;27.92;40.86
22096;BME280;24083;55.670;37.568;2023-05-12T13:55:04;99289.97;;;30.68;40.27
22096;BME280;24083;55.670;37.568;2023-05-12T13:57:32;99281.72;;;32.51;40.01
22096;BME280;24083;55.670;37.568;2023-05-12T14:06:03;99278.53;;;31.62;39.12
22096;BME280;24083;55.670;37.568;2023-05-12T14:08:29;99287.44;;;30.18;39.79
22096;BME280;24083;55.670;37.568;2023-05-12T14:10:56;99274.41;;;33.04;38.50
22096;BME280;24083;55.670;37.568;2023-05-12T14:13:24;99277.22;;;30.42;38.96
22096;BME280;24083;55.670;37.568;2023-05-12T14:15:57;99281.44;;;31.53;39.14
22096;BME280;24083;55.670;37.568;2023-05-12T14:18:23;99269.97;;;32.32;39.20
22096;BME280;24083;55.670;37.568;2023-05-12T14:20:57;99275.13;;;30.92;39.32
22096;BME280;24083;55.670;37.568;2023-05-12T14:29:10;99273.13;;;30.11;38.73
22096;BME280;24083;55.670;37.568;2023-05-12T14:34:31;99280.28;;;29.46;39.40
22096;BME280;24083;55.670;37.568;2023-05-12T14:36:56;99277.63;;;29.46;39.48
22096;BME280;24083;55.670;37.568;2023-05-12T14:39:22;99278.00;;;29.43;39.93
22096;BME280;24083;55.670;37.568;2023-05-12T14:41:49;99274.38;;;28.41;40.31
22096;BME280;24083;55.670;37.568;2023-05-12T14:44:16;99276.06;;;27.35;40.74
22096;BME280;24083;55.670;37.568;2023-05-12T14:46:43;99278.78;;;27.27;40.78
22096;BME280;24083;55.670;37.568;2023-05-12T14:49:16;99280.22;;;27.15;40.43
22096;BME280;24083;55.670;37.568;2023-05-12T14:52:01;99277.63;;;30.03;40.23
22096;BME280;24083;55.670;37.568;2023-05-12T14:54:40;99281.97;;;28.22;39.94
22096;BME280;24083;55.670;37.568;2023-05-12T14:57:14;99258.00;;;31.88;38.58
22096;BME280;24083;55.670;37.568;2023-05-12T14:59:40;99257.94;;;33.88;38.51
22096;BME280;24083;55.670;37.568;2023-05-12T15:02:07;99261.88;;;32.19;38.01
22096;BME280;24083;55.670;37.568;2023-05-12T15:04:33;99266.22;;;32.79;38.09
22096;BME280;24083;55.670;37.568;2023-05-12T15:07:01;99274.66;;;29.20;39.38
22096;BME280;24083;55.670;37.568;2023-05-12T15:09:34;99282.16;;;28.36;39.92
22096;BME280;24083;55.670;37.568;2023-05-12T15:20:55;99266.84;;;30.32;39.09
22096;BME280;24083;55.670;37.568;2023-05-12T15:23:22;99271.97;;;29.63;39.18
22096;BME280;24083;55.670;37.568;2023-05-12T15:25:50;99262.94;;;30.41;39.00
22096;BME280;24083;55.670;37.568;2023-05-12T15:28:21;99258.66;;;31.63;38.51
22096;BME280;24083;55.670;37.568;2023-05-12T15:31:04;99251.19;;;31.38;38.24
22096;BME280;24083;55.670;37.568;2023-05-12T15:33:32;99262.50;;;29.67;39.02
22096;BME280;24083;55.670;37.568;2023-05-12T15:35:57;99257.41;;;31.45;38.35
22096;BME280;24083;55.670;37.568;2023-05-12T15:38:26;99274.59;;;29.35;38.79
22096;BME280;24083;55.670;37.568;2023-05-12T15:40:52;99271.97;;;29.20;39.16
22096;BME280;24083;55.670;37.568;2023-05-12T15:43:19;99271.22;;;27.92;39.40
22096;BME280;24083;55.670;37.568;2023-05-12T15:45:46;99270.03;;;26.78;39.95
22096;BME280;24083;55.670;37.568;2023-05-12T15:48:14;99272.22;;;26.43;40.63
22096;BME280;24083;55.670;37.568;2023-05-12T15:53:19;99267.28;;;27.50;40.22
22096;BME280;24083;55.670;37.568;2023-05-12T15:55:57;99270.13;;;28.02;40.14
22096;BME280;24083;55.670;37.568;2023-05-12T15:58:54;99264.88;;;28.75;39.30
22096;BME280;24083;55.670;37.568;2023-05-12T16:10:11;99256.28;;;28.28;39.24
22096;BME280;24083;55.670;37.568;2023-05-12T16:12:37;99266.97;;;26.10;40.20
22096;BME280;24083;55.670;37.568;2023-05-12T16:15:08;99264.59;;;26.72;40.44
22096;BME280;24083;55.670;37.568;2023-05-12T16:17:35;99263.63;;;26.00;40.51
22096;BME280;24083;55.670;37.568;2023-05-12T16:22:29;99269.63;;;26.98;40.13